Time;durP1;ratioP1;P1;durP2;ratioP2;P2;SDS_P1;SDS_P2;PMS_P1;PMS_P2;Temp;Humidity;BMP_temperature;BMP_pressure;BME280_temperature;BME280_humidity;BME280_pressure;Samples;Min_cycle;Max_cycle;Signal;HPM_P1;HPM_P2
2022/01/16 00:01:59;;;;;;;19.07;4.50;;;4.80;99.90;;;;;;5057279;28;20472;-56
2022/01/16 00:04:27;;;;;;;5.87;2.50;;;4.80;99.90;;;;;;5057543;28;20452;-57
2022/01/16 00:06:53;;;;;;;10.50;4.30;;;4.80;99.90;;;;;;5056388;28;20508;-57
2022/01/16 00:09:20;;;;;;;11.47;3.10;;;4.60;99.90;;;;;;5056561;28;20452;-56
2022/01/16 00:11:50;;;;;;;9.97;4.00;;;4.60;99.90;;;;;;5056848;28;20570;-56
2022/01/16 00:14:18;;;;;;;6.33;4.10;;;4.60;99.90;;;;;;5056870;28;20483;-57
2022/01/16 00:16:44;;;;;;;14.07;3.90;;;4.60;99.90;;;;;;5056567;28;20456;-55
2022/01/16 00:19:11;;;;;;;14.70;5.03;;;4.50;99.90;;;;;;5057111;28;20452;-57
2022/01/16 00:21:41;;;;;;;5.17;2.90;;;4.60;99.90;;;;;;5056970;28;20461;-59
2022/01/16 00:24:09;;;;;;;12.17;4.10;;;4.50;99.90;;;;;;5056997;28;20449;-53
2022/01/16 00:26:36;;;;;;;7.70;2.80;;;4.50;99.90;;;;;;5056940;28;20464;-57
2022/01/16 00:29:07;;;;;;;12.17;4.40;;;4.50;99.90;;;;;;5055387;28;20447;-58
2022/01/16 00:31:37;;;;;;;15.77;4.60;;;4.60;99.90;;;;;;5056568;28;20463;-59
2022/01/16 00:34:04;;;;;;;22.80;3.70;;;4.60;99.90;;;;;;5054396;28;20433;-56
2022/01/16 00:36:31;;;;;;;9.33;4.90;;;4.60;99.90;;;;;;5056428;28;20508;-50
2022/01/16 00:38:58;;;;;;;15.00;4.07;;;4.60;99.90;;;;;;5056184;28;20486;-59
2022/01/16 00:41:25;;;;;;;10.30;3.60;;;4.50;99.90;;;;;;5055883;28;20464;-54
2022/01/16 00:43:54;;;;;;;5.43;3.43;;;4.50;99.90;;;;;;5056458;28;20429;-56
2022/01/16 00:46:21;;;;;;;5.50;3.53;;;4.50;99.90;;;;;;5053680;28;20463;-59
2022/01/16 00:48:50;;;;;;;6.43;4.00;;;4.60;99.90;;;;;;5055933;28;20456;-57
2022/01/16 00:51:17;;;;;;;6.67;3.83;;;4.50;99.90;;;;;;5056166;28;20453;-59
2022/01/16 00:53:44;;;;;;;8.90;3.30;;;4.50;99.90;;;;;;5056058;28;20460;-56
2022/01/16 00:56:11;;;;;;;16.40;3.43;;;4.50;99.90;;;;;;5056073;28;20476;-55
2022/01/16 00:58:38;;;;;;;8.03;3.80;;;4.50;99.90;;;;;;5055661;28;20460;-57
2022/01/16 01:01:08;;;;;;;6.40;4.90;;;4.50;99.90;;;;;;5056449;28;20437;-60
2022/01/16 01:03:35;;;;;;;9.67;3.93;;;4.50;99.90;;;;;;5055550;28;20455;-55
2022/01/16 01:06:04;;;;;;;7.73;5.10;;;4.50;99.90;;;;;;5055337;28;20437;-58
2022/01/16 01:08:30;;;;;;;10.70;3.70;;;4.50;99.90;;;;;;5054148;28;20507;-59
2022/01/16 01:10:59;;;;;;;25.17;4.67;;;4.60;99.90;;;;;;5055685;28;20480;-57
2022/01/16 01:13:33;;;;;;;8.00;4.10;;;4.50;99.90;;;;;;5051285;28;20450;-57
2022/01/16 01:16:03;;;;;;;7.43;3.47;;;4.60;99.90;;;;;;5048968;28;20782;-55
2022/01/16 01:18:31;;;;;;;11.27;3.33;;;4.50;99.90;;;;;;5048726;28;20516;-58
2022/01/16 01:20:58;;;;;;;13.27;3.37;;;4.40;99.90;;;;;;5049576;28;20460;-55
2022/01/16 01:23:26;;;;;;;11.67;4.57;;;4.30;99.90;;;;;;5050078;28;20471;-57
2022/01/16 01:25:53;;;;;;;18.30;4.20;;;4.30;99.90;;;;;;5050141;28;20456;-58
2022/01/16 01:28:20;;;;;;;4.47;2.87;;;4.30;99.90;;;;;;5045856;28;20499;-58
2022/01/16 01:30:47;;;;;;;20.73;4.40;;;4.30;99.90;;;;;;5049442;28;20957;-57
2022/01/16 01:33:14;;;;;;;9.70;3.60;;;4.30;99.90;;;;;;5048877;28;20445;-59
2022/01/16 01:35:41;;;;;;;17.97;5.90;;;4.30;99.90;;;;;;5044092;28;20436;-58
2022/01/16 01:38:10;;;;;;;5.83;3.50;;;4.30;99.90;;;;;;5048560;28;20975;-58
2022/01/16 01:40:39;;;;;;;4.77;2.87;;;4.30;99.90;;;;;;5048947;28;20467;-58
2022/01/16 01:51:02;;;;;;;10.40;4.30;;;4.30;99.90;;;;;;5048873;28;20499;-59
2022/01/16 01:51:42;;;;;;;6.43;5.10;;;4.10;99.90;;;;;;5047936;28;20464;-56
2022/01/16 01:54:09;;;;;;;4.87;2.80;;;4.20;99.90;;;;;;5048261;28;20483;-58
2022/01/16 01:56:45;;;;;;;16.07;4.93;;;4.20;99.90;;;;;;5047928;28;20501;-55
2022/01/16 01:59:11;;;;;;;15.00;7.30;;;4.10;99.90;;;;;;5044679;28;20432;-52
2022/01/16 02:01:38;;;;;;;9.13;4.73;;;4.10;99.90;;;;;;5044144;28;20510;-54
2022/01/16 02:04:05;;;;;;;3.83;2.80;;;4.20;99.90;;;;;;5044455;28;20444;-54
2022/01/16 02:06:33;;;;;;;8.87;2.10;;;4.20;99.90;;;;;;5044376;28;20475;-52
2022/01/16 02:09:01;;;;;;;14.57;5.00;;;4.20;99.90;;;;;;5044816;28;20494;-54
2022/01/16 02:11:31;;;;;;;4.20;2.90;;;4.20;99.90;;;;;;5044498;28;20491;-54
2022/01/16 02:14:07;;;;;;;7.93;3.20;;;4.20;99.90;;;;;;5044734;28;20507;-55
2022/01/16 02:28:01;;;;;;;9.43;3.57;;;4.30;99.90;;;;;;5040665;28;20404;-54
2022/01/16 02:35:48;;;;;;;9.80;4.80;;;4.20;99.90;;;;;;5042886;28;20400;-54
2022/01/16 02:38:16;;;;;;;5.90;3.07;;;4.20;99.90;;;;;;5043641;28;20475;-55
2022/01/16 02:40:49;;;;;;;10.63;3.17;;;4.20;99.90;;;;;;5041345;28;20948;-53
2022/01/16 02:43:18;;;;;;;21.63;4.77;;;4.10;99.90;;;;;;5043639;28;20441;-54
2022/01/16 02:45:48;;;;;;;11.03;3.47;;;4.10;99.90;;;;;;5042937;28;20528;-55
2022/01/16 02:48:15;;;;;;;4.40;2.40;;;4.10;99.90;;;;;;5044006;28;20504;-53
2022/01/16 02:50:41;;;;;;;11.73;4.40;;;4.10;99.90;;;;;;5040609;28;20933;-54
2022/01/16 02:53:12;;;;;;;13.53;5.00;;;4.10;99.90;;;;;;5044180;28;20441;-48
2022/01/16 02:55:43;;;;;;;8.50;3.03;;;4.00;99.90;;;;;;5045089;28;20444;-53
2022/01/16 02:58:10;;;;;;;6.93;2.67;;;3.90;99.90;;;;;;5045407;28;20547;-53
2022/01/16 03:00:37;;;;;;;5.33;2.60;;;3.90;99.90;;;;;;5045160;28;20437;-56
2022/01/16 03:03:04;;;;;;;7.07;3.97;;;3.70;99.90;;;;;;5047509;28;20448;-53
2022/01/16 03:05:33;;;;;;;9.53;3.10;;;3.60;99.90;;;;;;5047367;28;20494;-55
2022/01/16 03:07:59;;;;;;;10.90;3.40;;;3.60;99.90;;;;;;5044122;28;20492;-52
2022/01/16 03:10:44;;;;;;;7.83;2.73;;;3.50;99.90;;;;;;5044306;28;20470;-51
2022/01/16 03:13:12;;;;;;;16.47;2.30;;;3.50;99.90;;;;;;5043098;28;20567;-54
2022/01/16 03:15:39;;;;;;;3.57;2.77;;;3.40;99.90;;;;;;5044354;28;20444;-56
2022/01/16 03:23:35;;;;;;;5.03;3.00;;;3.30;99.90;;;;;;5045578;28;20408;-50
2022/01/16 03:26:02;;;;;;;4.87;3.03;;;3.20;99.90;;;;;;5043674;28;20502;-53
2022/01/16 03:28:30;;;;;;;7.30;3.83;;;3.20;99.90;;;;;;5045279;28;20485;-50
2022/01/16 03:30:57;;;;;;;8.50;2.30;;;3.20;99.90;;;;;;5047393;28;20441;-51
2022/01/16 03:33:23;;;;;;;8.50;3.10;;;3.20;99.90;;;;;;5048134;28;20440;-53
2022/01/16 03:35:51;;;;;;;8.30;2.37;;;3.20;99.90;;;;;;5046427;28;20460;-54
2022/01/16 03:38:18;;;;;;;5.73;2.10;;;3.10;99.90;;;;;;5045633;28;20878;-50
2022/01/16 03:40:45;;;;;;;5.33;2.27;;;3.10;99.90;;;;;;5045896;28;20491;-53
2022/01/16 03:43:14;;;;;;;8.07;3.13;;;3.10;99.90;;;;;;5045929;28;20479;-55
2022/01/16 03:45:47;;;;;;;8.10;3.37;;;3.10;99.90;;;;;;5045813;28;20473;-53
2022/01/16 03:48:16;;;;;;;8.13;2.90;;;3.10;99.90;;;;;;5046306;28;20460;-52
2022/01/16 03:50:42;;;;;;;10.10;2.10;;;3.00;99.90;;;;;;5045895;28;20479;-53
2022/01/16 03:53:09;;;;;;;7.43;3.03;;;3.00;99.90;;;;;;5046878;28;20486;-55
2022/01/16 03:55:36;;;;;;;2.60;2.07;;;2.90;99.90;;;;;;5046826;28;20468;-53
2022/01/16 03:58:03;;;;;;;12.90;3.20;;;2.90;99.90;;;;;;5046663;28;20507;-52
2022/01/16 04:00:30;;;;;;;8.00;1.53;;;2.90;99.90;;;;;;5049771;28;20555;-57
2022/01/16 04:02:58;;;;;;;6.37;3.50;;;2.90;99.90;;;;;;5050719;28;20499;-54
2022/01/16 04:05:25;;;;;;;8.20;3.63;;;2.90;99.90;;;;;;5051903;28;20444;-53
2022/01/16 04:07:52;;;;;;;3.77;2.53;;;2.80;99.90;;;;;;5051759;28;20444;-54
2022/01/16 04:10:20;;;;;;;5.90;2.60;;;2.70;99.90;;;;;;5051641;28;20428;-52
2022/01/16 04:12:47;;;;;;;13.47;2.87;;;2.70;99.90;;;;;;5051492;28;20444;-53
2022/01/16 04:15:34;;;;;;;4.27;3.20;;;2.70;99.90;;;;;;5051109;28;20488;-55
2022/01/16 04:18:05;;;;;;;4.37;2.00;;;2.60;99.90;;;;;;5051448;28;20479;-56
2022/01/16 04:20:33;;;;;;;14.80;2.93;;;2.50;99.90;;;;;;5052128;28;20491;-55
2022/01/16 04:23:00;;;;;;;7.77;3.00;;;2.50;99.90;;;;;;5051143;28;20463;-54
2022/01/16 04:25:27;;;;;;;11.67;2.90;;;2.60;99.90;;;;;;5052016;28;20469;-53
2022/01/16 04:27:54;;;;;;;10.50;3.57;;;2.50;99.90;;;;;;5052658;28;20458;-54
2022/01/16 04:30:21;;;;;;;3.33;2.77;;;2.50;99.90;;;;;;5053758;28;20522;-57
2022/01/16 04:32:48;;;;;;;14.10;4.67;;;2.50;99.90;;;;;;5053513;28;20448;-53
2022/01/16 04:35:17;;;;;;;8.10;3.47;;;2.40;99.90;;;;;;5051935;28;20456;-53
2022/01/16 04:37:43;;;;;;;15.80;2.73;;;2.30;99.90;;;;;;5053549;28;20539;-53
2022/01/16 04:40:11;;;;;;;5.10;2.57;;;2.30;99.90;;;;;;5052817;28;20912;-54
2022/01/16 04:45:22;;;;;;;12.33;2.80;;;2.20;99.90;;;;;;5052534;28;20418;-56
2022/01/16 04:47:50;;;;;;;5.80;2.27;;;2.30;99.90;;;;;;5052833;28;20464;-55
2022/01/16 04:50:20;;;;;;;21.57;3.33;;;2.30;99.90;;;;;;5052299;28;20452;-56
2022/01/16 04:52:47;;;;;;;20.97;2.70;;;2.30;99.90;;;;;;5052394;28;20452;-52
2022/01/16 04:55:14;;;;;;;15.80;3.50;;;2.30;99.90;;;;;;5052065;28;20464;-48
2022/01/16 04:57:42;;;;;;;8.23;3.10;;;2.30;99.90;;;;;;5052582;28;20484;-46
2022/01/16 05:00:12;;;;;;;3.63;1.47;;;2.20;99.90;;;;;;5053296;28;20480;-56
2022/01/16 05:02:39;;;;;;;10.13;3.83;;;2.20;99.90;;;;;;5053415;28;20482;-53
2022/01/16 05:05:06;;;;;;;2.37;1.60;;;2.10;99.90;;;;;;5052699;28;20480;-55
2022/01/16 05:07:34;;;;;;;7.70;2.67;;;2.10;99.90;;;;;;5053130;28;20921;-55
2022/01/16 05:10:01;;;;;;;3.57;2.53;;;2.10;99.90;;;;;;5052913;28;20448;-55
2022/01/16 05:12:33;;;;;;;9.50;2.90;;;2.00;99.90;;;;;;5052685;28;20471;-50
2022/01/16 05:17:44;;;;;;;6.80;3.20;;;2.00;99.90;;;;;;5010129;28;20467;-53
2022/01/16 05:20:12;;;;;;;4.43;3.67;;;1.90;99.90;;;;;;5053046;28;20456;-52
2022/01/16 05:22:40;;;;;;;4.50;2.57;;;1.90;99.90;;;;;;5051943;28;20478;-54
2022/01/16 05:25:10;;;;;;;5.20;3.30;;;2.00;99.90;;;;;;5051855;28;20440;-54
2022/01/16 05:27:37;;;;;;;4.23;3.00;;;2.00;99.90;;;;;;5053383;28;20456;-54
2022/01/16 05:30:06;;;;;;;16.77;2.97;;;1.90;99.90;;;;;;5052850;28;20440;-52
2022/01/16 05:32:33;;;;;;;9.20;3.40;;;2.00;99.90;;;;;;5051450;28;20443;-56
2022/01/16 05:35:00;;;;;;;2.57;2.10;;;2.00;99.90;;;;;;5052083;28;20483;-50
2022/01/16 05:37:27;;;;;;;5.80;2.37;;;2.10;99.90;;;;;;5051597;28;20480;-50
2022/01/16 05:39:55;;;;;;;3.43;2.23;;;2.10;99.90;;;;;;5051975;28;20490;-53
2022/01/16 05:42:22;;;;;;;2.53;2.23;;;2.00;99.90;;;;;;5051503;28;20456;-51
2022/01/16 05:44:49;;;;;;;9.70;4.27;;;2.00;99.90;;;;;;5051538;28;20488;-52
2022/01/16 05:47:15;;;;;;;3.93;2.30;;;2.00;99.90;;;;;;5052237;28;20444;-51
2022/01/16 05:49:42;;;;;;;18.57;5.40;;;2.00;99.90;;;;;;5051385;28;20468;-56
2022/01/16 05:52:10;;;;;;;19.23;5.27;;;2.00;99.90;;;;;;5052328;28;20475;-53
2022/01/16 05:54:36;;;;;;;3.90;2.60;;;2.00;99.90;;;;;;5051512;28;20803;-53
2022/01/16 05:57:05;;;;;;;7.87;3.40;;;1.90;99.90;;;;;;5052455;28;20510;-51
2022/01/16 05:59:33;;;;;;;5.33;2.40;;;1.90;99.90;;;;;;5053050;28;20451;-55
2022/01/16 06:02:06;;;;;;;11.00;3.37;;;1.90;99.90;;;;;;5052409;28;20459;-54
2022/01/16 06:04:33;;;;;;;41.70;4.13;;;2.00;99.90;;;;;;5051677;28;20432;-52
2022/01/16 06:07:01;;;;;;;11.67;2.87;;;2.00;99.90;;;;;;5034290;28;20464;-50
2022/01/16 06:09:27;;;;;;;6.37;2.90;;;2.00;99.90;;;;;;5051462;28;20439;-54
2022/01/16 06:11:55;;;;;;;15.10;3.03;;;2.00;99.90;;;;;;5052165;28;20943;-55
2022/01/16 06:14:23;;;;;;;12.47;3.73;;;2.00;99.90;;;;;;5053268;28;20474;-56
2022/01/16 06:16:51;;;;;;;5.60;3.47;;;1.90;99.90;;;;;;5051772;28;20518;-52
2022/01/16 06:19:19;;;;;;;5.93;3.83;;;1.90;99.90;;;;;;5051494;28;20490;-53
2022/01/16 06:21:46;;;;;;;6.73;3.07;;;1.90;99.90;;;;;;5051778;28;20458;-52
2022/01/16 06:24:13;;;;;;;22.97;4.20;;;1.90;99.90;;;;;;5051577;28;20471;-55
2022/01/16 06:26:40;;;;;;;5.83;2.90;;;1.90;99.90;;;;;;5050438;28;20463;-55
2022/01/16 06:29:07;;;;;;;3.63;1.97;;;1.90;99.90;;;;;;5051632;28;20502;-56
2022/01/16 06:31:35;;;;;;;6.23;2.83;;;1.90;99.90;;;;;;5052833;28;20478;-53
2022/01/16 06:34:05;;;;;;;11.60;3.00;;;1.90;99.90;;;;;;5052405;28;20446;-52
2022/01/16 06:36:35;;;;;;;21.40;4.97;;;1.90;99.90;;;;;;5052056;28;20443;-52
2022/01/16 06:39:04;;;;;;;5.20;2.77;;;1.80;99.90;;;;;;5052032;28;20515;-51
2022/01/16 06:41:30;;;;;;;11.40;4.20;;;1.80;99.90;;;;;;5053710;28;20435;-56
2022/01/16 06:43:57;;;;;;;8.40;3.50;;;1.80;99.90;;;;;;5053739;28;20506;-55
2022/01/16 06:46:24;;;;;;;10.60;5.30;;;1.80;99.90;;;;;;5052364;28;20473;-55
2022/01/16 06:48:54;;;;;;;9.63;4.70;;;1.80;99.90;;;;;;5052633;28;20475;-55
2022/01/16 06:51:23;;;;;;;5.73;3.23;;;1.80;99.90;;;;;;5052545;28;20465;-55
2022/01/16 06:53:53;;;;;;;13.20;3.23;;;1.80;99.90;;;;;;5052312;28;20515;-51
2022/01/16 06:56:21;;;;;;;10.80;3.77;;;1.80;99.90;;;;;;5052593;28;20487;-53
2022/01/16 06:58:47;;;;;;;9.07;3.70;;;1.80;99.90;;;;;;5052429;28;20495;-52
2022/01/16 07:01:14;;;;;;;15.83;5.60;;;1.90;99.90;;;;;;5052361;28;20466;-54
2022/01/16 07:03:41;;;;;;;4.87;3.70;;;1.80;99.90;;;;;;5051912;28;20444;-54
2022/01/16 07:06:09;;;;;;;7.67;2.73;;;1.80;99.90;;;;;;5051680;28;20491;-54
2022/01/16 07:08:36;;;;;;;10.03;4.63;;;1.80;99.90;;;;;;5052360;28;20473;-57
2022/01/16 07:11:04;;;;;;;12.80;3.77;;;1.70;99.90;;;;;;5053336;28;20475;-56
2022/01/16 07:13:33;;;;;;;5.67;4.10;;;1.70;99.90;;;;;;5052927;28;20442;-55
2022/01/16 07:16:00;;;;;;;8.20;5.00;;;1.70;99.90;;;;;;5052068;28;20503;-54
2022/01/16 07:18:27;;;;;;;13.70;5.37;;;1.70;99.90;;;;;;5046701;28;20476;-52
2022/01/16 07:20:54;;;;;;;13.20;5.23;;;1.80;99.90;;;;;;5043243;28;20481;-53
2022/01/16 07:23:23;;;;;;;12.20;4.60;;;1.80;99.90;;;;;;5042289;28;20517;-51
2022/01/16 07:25:50;;;;;;;12.87;4.97;;;1.80;99.90;;;;;;5042406;28;20498;-53
2022/01/16 07:28:17;;;;;;;9.60;4.80;;;1.80;99.90;;;;;;5042587;28;20482;-52
2022/01/16 07:30:44;;;;;;;4.33;3.50;;;1.80;99.90;;;;;;5044136;28;20475;-50
2022/01/16 07:33:11;;;;;;;9.63;4.83;;;1.90;99.90;;;;;;5043899;28;20447;-54
2022/01/16 07:35:38;;;;;;;9.60;4.57;;;1.80;99.90;;;;;;5042900;28;20472;-54
2022/01/16 07:38:06;;;;;;;9.63;3.90;;;1.70;99.90;;;;;;5048751;28;20487;-53
2022/01/16 07:40:36;;;;;;;12.40;6.20;;;1.70;99.90;;;;;;5049793;28;20523;-53
2022/01/16 07:43:03;;;;;;;7.57;5.53;;;1.70;99.90;;;;;;5047275;28;20451;-55
2022/01/16 07:45:30;;;;;;;21.23;5.60;;;1.70;99.90;;;;;;5047471;28;20475;-54
2022/01/16 07:47:57;;;;;;;9.53;5.87;;;1.70;99.90;;;;;;5047344;28;20475;-54
2022/01/16 07:50:24;;;;;;;11.87;4.13;;;1.70;99.90;;;;;;5047550;28;20525;-54
2022/01/16 07:52:51;;;;;;;10.83;4.20;;;1.70;99.90;;;;;;5048293;28;20461;-55
2022/01/16 07:55:21;;;;;;;14.67;4.80;;;1.60;99.90;;;;;;5046806;28;20475;-53
2022/01/16 07:57:51;;;;;;;12.77;5.17;;;1.60;99.90;;;;;;5046547;28;20486;-53
2022/01/16 08:00:18;;;;;;;10.10;6.30;;;1.70;99.90;;;;;;5047216;28;20520;-50
2022/01/16 08:02:45;;;;;;;18.93;5.20;;;1.70;99.90;;;;;;5047900;28;20899;-55
2022/01/16 08:05:11;;;;;;;23.30;6.60;;;1.80;99.90;;;;;;5050141;28;20490;-53
2022/01/16 08:07:38;;;;;;;17.90;6.23;;;1.80;99.90;;;;;;5049146;28;20440;-56
2022/01/16 08:10:06;;;;;;;10.83;5.27;;;1.80;99.90;;;;;;5045995;28;20487;-54
2022/01/16 08:12:34;;;;;;;9.27;5.13;;;1.80;99.90;;;;;;5046480;28;20451;-53
2022/01/16 08:15:04;;;;;;;10.17;5.10;;;1.90;99.90;;;;;;5046344;28;20455;-55
2022/01/16 08:17:31;;;;;;;8.87;5.07;;;1.90;99.90;;;;;;5045425;28;20443;-55
2022/01/16 08:19:59;;;;;;;12.93;6.00;;;1.90;99.90;;;;;;5046457;28;20487;-50
2022/01/16 08:22:26;;;;;;;13.17;7.10;;;1.90;99.90;;;;;;5046780;28;20968;-52
2022/01/16 08:24:52;;;;;;;14.70;7.47;;;1.90;99.90;;;;;;5046114;28;20581;-53
2022/01/16 08:27:19;;;;;;;7.80;5.20;;;1.90;99.90;;;;;;5047474;28;20487;-56
2022/01/16 08:29:46;;;;;;;9.20;5.33;;;1.90;99.90;;;;;;5050608;28;20687;-53
2022/01/16 08:32:14;;;;;;;27.50;8.10;;;1.90;99.90;;;;;;5048336;28;20502;-57
2022/01/16 08:34:41;;;;;;;7.17;5.87;;;1.90;99.90;;;;;;5046258;28;20546;-54
2022/01/16 08:37:07;;;;;;;7.67;6.60;;;2.00;99.90;;;;;;5045058;28;20474;-54
2022/01/16 08:39:34;;;;;;;11.67;5.90;;;2.10;99.90;;;;;;5045028;28;20537;-55
2022/01/16 08:42:01;;;;;;;8.00;5.80;;;2.20;99.90;;;;;;5045434;28;20479;-56
2022/01/16 08:44:28;;;;;;;17.17;6.13;;;2.20;99.90;;;;;;5045688;28;20500;-53
2022/01/16 08:46:54;;;;;;;15.23;8.67;;;2.30;99.90;;;;;;5044770;28;20482;-53
2022/01/16 08:49:22;;;;;;;8.40;4.70;;;2.30;99.90;;;;;;5044176;28;20824;-51
2022/01/16 08:51:49;;;;;;;22.77;7.70;;;2.30;99.90;;;;;;5037355;28;20777;-58
2022/01/16 08:54:16;;;;;;;37.77;9.37;;;2.30;99.90;;;;;;5041392;28;20667;-52
2022/01/16 08:56:43;;;;;;;10.60;6.87;;;2.30;99.90;;;;;;5045007;28;20471;-54
2022/01/16 08:59:09;;;;;;;16.00;7.00;;;2.30;99.90;;;;;;5043829;28;20480;-54
2022/01/16 09:01:36;;;;;;;19.80;6.80;;;2.30;99.90;;;;;;5044743;28;20762;-56
2022/01/16 09:04:03;;;;;;;15.60;7.30;;;2.30;99.90;;;;;;5044281;28;20473;-53
2022/01/16 09:06:31;;;;;;;10.40;6.70;;;2.40;99.90;;;;;;5044646;28;20482;-53
2022/01/16 09:08:58;;;;;;;9.83;5.53;;;2.40;99.90;;;;;;5044768;28;20447;-53
2022/01/16 09:11:25;;;;;;;16.57;7.67;;;2.30;99.90;;;;;;5045557;28;20475;-54
2022/01/16 09:13:52;;;;;;;8.00;6.70;;;2.30;99.90;;;;;;5045095;28;20444;-57
2022/01/16 09:16:20;;;;;;;15.20;7.97;;;2.20;99.90;;;;;;5048084;28;20445;-49
2022/01/16 09:18:47;;;;;;;14.30;8.07;;;2.30;99.90;;;;;;5046964;28;20470;-51
2022/01/16 09:21:14;;;;;;;11.70;8.07;;;2.30;99.90;;;;;;5044053;28;20474;-51
2022/01/16 09:23:42;;;;;;;10.67;6.87;;;2.30;99.90;;;;;;5044629;28;20454;-52
2022/01/16 09:26:09;;;;;;;15.00;6.17;;;2.30;99.90;;;;;;5044372;28;20451;-56
2022/01/16 09:28:36;;;;;;;22.20;7.47;;;2.40;99.90;;;;;;5044937;28;20980;-54
2022/01/16 09:31:02;;;;;;;14.77;10.17;;;2.40;99.90;;;;;;5044170;28;20487;-55
2022/01/16 09:33:29;;;;;;;16.40;8.80;;;2.50;99.90;;;;;;5043637;28;20840;-55
2022/01/16 09:35:56;;;;;;;14.80;7.37;;;2.50;99.90;;;;;;5043295;28;20459;-54
2022/01/16 09:38:23;;;;;;;13.20;6.57;;;2.60;99.90;;;;;;5043586;28;20463;-55
2022/01/16 09:40:53;;;;;;;18.23;9.33;;;2.70;99.90;;;;;;5044440;28;20539;-55
2022/01/16 09:43:20;;;;;;;17.93;9.67;;;2.70;99.90;;;;;;5044193;28;20503;-53
2022/01/16 09:45:47;;;;;;;21.00;9.80;;;2.70;99.90;;;;;;5044209;28;20452;-54
2022/01/16 09:48:15;;;;;;;19.17;6.70;;;2.80;99.90;;;;;;5043144;28;20499;-54
2022/01/16 09:50:42;;;;;;;15.43;7.87;;;2.80;99.90;;;;;;5043482;28;20522;-56
2022/01/16 09:53:09;;;;;;;13.80;6.37;;;2.80;99.90;;;;;;5042677;28;20478;-55
2022/01/16 09:55:36;;;;;;;14.33;8.00;;;2.90;99.90;;;;;;5043611;28;20548;-53
2022/01/16 09:58:06;;;;;;;18.13;9.57;;;3.00;99.90;;;;;;5043414;28;20486;-55
2022/01/16 10:00:33;;;;;;;19.87;8.20;;;3.10;99.90;;;;;;5042909;28;20488;-54
2022/01/16 10:03:00;;;;;;;11.20;5.97;;;3.10;99.90;;;;;;5044058;28;20539;-54
2022/01/16 10:05:30;;;;;;;11.80;7.33;;;3.10;99.90;;;;;;5045151;28;20466;-51
2022/01/16 10:07:59;;;;;;;12.10;9.10;;;3.10;99.90;;;;;;5050463;28;20889;-52
2022/01/16 10:10:27;;;;;;;15.93;7.73;;;3.10;99.90;;;;;;5051943;28;20440;-53
2022/01/16 10:12:57;;;;;;;14.70;8.73;;;3.10;99.90;;;;;;5051174;28;20472;-57
2022/01/16 10:15:27;;;;;;;20.07;10.10;;;3.20;99.90;;;;;;5050422;28;20467;-52
2022/01/16 10:17:56;;;;;;;11.93;6.20;;;3.30;99.90;;;;;;5050638;28;20467;-52
2022/01/16 10:20:23;;;;;;;7.93;5.83;;;3.20;99.90;;;;;;5050861;28;20479;-57
2022/01/16 10:22:53;;;;;;;13.97;7.60;;;3.20;99.90;;;;;;5050956;28;20549;-57
2022/01/16 10:25:38;;;;;;;12.80;6.63;;;3.20;99.90;;;;;;5051815;28;20913;-57
2022/01/16 10:28:12;;;;;;;12.80;6.50;;;3.10;99.90;;;;;;5051315;28;20475;-56
2022/01/16 10:30:43;;;;;;;12.60;7.10;;;3.10;99.90;;;;;;5053470;28;20439;-53
2022/01/16 10:33:13;;;;;;;14.37;8.37;;;3.00;99.90;;;;;;5056923;28;20468;-53
2022/01/16 10:35:41;;;;;;;12.23;7.17;;;2.90;99.90;;;;;;5057685;28;20432;-53
2022/01/16 10:38:11;;;;;;;22.00;7.80;;;2.90;99.90;;;;;;5056906;28;20472;-53
2022/01/16 10:40:40;;;;;;;17.37;7.00;;;4.10;99.90;;;;;;5048097;28;20535;-44
2022/01/16 10:43:13;;;;;;;10.83;6.60;;;3.90;99.90;;;;;;5047347;28;20570;-53
2022/01/16 10:45:43;;;;;;;7.93;4.50;;;3.60;99.90;;;;;;5041530;28;20456;-56
2022/01/16 10:48:11;;;;;;;10.50;6.40;;;3.30;99.90;;;;;;5035631;28;20474;-55
2022/01/16 10:50:40;;;;;;;11.23;5.47;;;3.20;99.90;;;;;;5034524;28;20532;-56
2022/01/16 10:53:09;;;;;;;17.90;7.40;;;2.90;99.90;;;;;;5035558;28;20449;-56
2022/01/16 10:55:41;;;;;;;9.10;5.10;;;2.80;99.90;;;;;;5044270;28;20457;-55
2022/01/16 10:58:12;;;;;;;7.93;5.53;;;2.70;99.90;;;;;;5046157;28;20475;-54
2022/01/16 11:00:44;;;;;;;14.67;6.93;;;2.50;99.90;;;;;;5054545;28;20464;-56
2022/01/16 11:03:14;;;;;;;10.33;5.27;;;2.40;99.90;;;;;;5054646;28;20488;-55
2022/01/16 11:05:44;;;;;;;14.53;6.47;;;2.30;99.90;;;;;;5054881;28;20466;-55
2022/01/16 11:08:14;;;;;;;7.27;4.70;;;2.20;99.90;;;;;;5053708;28;20444;-53
2022/01/16 11:10:42;;;;;;;7.13;4.33;;;2.30;99.90;;;;;;5053385;28;20544;-52
2022/01/16 11:13:11;;;;;;;14.60;6.57;;;2.20;99.90;;;;;;5054484;28;20512;-52
2022/01/16 11:15:39;;;;;;;12.13;7.80;;;2.20;99.90;;;;;;5061896;28;20469;-52
2022/01/16 11:18:10;;;;;;;12.60;5.70;;;2.20;99.90;;;;;;5061707;28;20479;-54
2022/01/16 11:20:40;;;;;;;19.60;6.63;;;2.20;99.90;;;;;;5061214;28;20475;-54
2022/01/16 11:23:16;;;;;;;15.70;6.43;;;2.20;99.90;;;;;;5061795;28;20427;-52
2022/01/16 11:25:44;;;;;;;13.73;5.53;;;2.20;99.90;;;;;;5061784;28;20523;-58
2022/01/16 11:28:13;;;;;;;12.90;6.00;;;2.30;99.90;;;;;;5061824;28;20440;-54
2022/01/16 11:30:47;;;;;;;9.87;5.07;;;2.30;99.90;;;;;;5060659;28;20511;-53
2022/01/16 11:33:15;;;;;;;8.70;5.73;;;2.40;99.90;;;;;;5061262;28;20467;-56
2022/01/16 11:35:55;;;;;;;11.17;4.90;;;2.30;99.90;;;;;;5061278;28;20476;-51
2022/01/16 11:38:23;;;;;;;5.90;4.77;;;2.30;99.90;;;;;;5061540;28;20468;-59
2022/01/16 11:40:51;;;;;;;9.73;6.20;;;2.40;99.90;;;;;;5061427;28;20452;-54
2022/01/16 11:43:24;;;;;;;14.47;7.20;;;2.40;99.90;;;;;;5061298;28;20465;-55
2022/01/16 11:45:54;;;;;;;10.97;7.10;;;2.40;99.90;;;;;;5061714;28;20458;-55
2022/01/16 11:48:35;;;;;;;12.80;6.07;;;2.50;99.90;;;;;;5061903;28;20451;-53
2022/01/16 11:51:03;;;;;;;19.00;8.33;;;2.50;99.90;;;;;;5061831;28;20439;-57
2022/01/16 11:54:05;;;;;;;9.93;5.60;;;2.60;99.90;;;;;;5061539;28;20482;-56
2022/01/16 11:56:54;;;;;;;16.67;7.70;;;2.70;99.90;;;;;;5061519;28;20411;-51
2022/01/16 11:59:22;;;;;;;11.77;6.93;;;2.70;99.90;;;;;;5061127;28;20509;-52
2022/01/16 12:01:51;;;;;;;10.07;4.23;;;2.70;99.90;;;;;;5061116;28;20450;-56
2022/01/16 12:04:53;;;;;;;11.60;7.07;;;2.80;99.90;;;;;;5061111;28;20496;-52
2022/01/16 12:07:57;;;;;;;14.00;6.03;;;2.80;99.90;;;;;;5061445;28;20482;-58
2022/01/16 12:10:50;;;;;;;14.30;7.07;;;2.90;99.90;;;;;;5056209;28;20452;-52
2022/01/16 12:13:42;;;;;;;18.33;8.70;;;2.90;99.90;;;;;;5048242;28;20433;-52
2022/01/16 12:16:36;;;;;;;11.10;6.47;;;3.00;99.90;;;;;;5061049;28;20456;-53
2022/01/16 12:19:45;;;;;;;14.80;6.73;;;3.00;99.90;;;;;;5046356;28;20432;-54
2022/01/16 12:22:46;;;;;;;12.33;6.43;;;3.10;99.90;;;;;;5046350;28;20614;-54
2022/01/16 12:25:18;;;;;;;16.47;7.00;;;3.10;99.90;;;;;;5044713;28;20948;-54
2022/01/16 12:27:47;;;;;;;9.27;5.50;;;3.10;99.90;;;;;;5046748;28;20688;-54
2022/01/16 12:30:38;;;;;;;15.77;7.90;;;3.10;99.90;;;;;;5053064;28;20488;-55
2022/01/16 12:33:11;;;;;;;8.23;4.70;;;3.10;99.90;;;;;;5043065;28;20450;-56
2022/01/16 12:36:12;;;;;;;10.23;5.87;;;3.20;99.90;;;;;;5048260;28;20436;-55
2022/01/16 12:38:55;;;;;;;16.77;6.87;;;3.20;99.90;;;;;;5054571;28;20436;-55
2022/01/16 12:41:31;;;;;;;16.53;7.30;;;3.30;99.90;;;;;;5045965;28;20534;-51
2022/01/16 12:44:01;;;;;;;16.80;5.63;;;3.20;99.90;;;;;;5044928;28;20452;-55
2022/01/16 12:46:31;;;;;;;6.70;5.17;;;3.30;99.90;;;;;;5054544;28;20512;-54
2022/01/16 12:49:01;;;;;;;13.73;7.60;;;3.30;99.90;;;;;;5042000;28;20456;-52
2022/01/16 12:51:29;;;;;;;13.67;7.23;;;3.20;99.90;;;;;;5049220;28;20430;-53
2022/01/16 12:54:09;;;;;;;8.37;4.60;;;3.20;99.90;;;;;;5049915;28;20471;-51
2022/01/16 12:56:39;;;;;;;17.07;6.20;;;3.30;99.90;;;;;;5040898;28;20464;-54
2022/01/16 12:59:12;;;;;;;10.50;6.90;;;3.30;99.90;;;;;;5052072;28;20430;-52
2022/01/16 13:01:44;;;;;;;13.93;6.83;;;3.30;99.90;;;;;;5047133;28;20482;-54
2022/01/16 13:04:28;;;;;;;13.00;8.73;;;3.30;99.90;;;;;;5054372;28;20459;-50
2022/01/16 13:06:57;;;;;;;13.97;7.23;;;3.40;99.90;;;;;;5040819;28;20468;-56
2022/01/16 13:09:27;;;;;;;14.20;7.73;;;3.40;99.90;;;;;;5048970;28;20448;-52
2022/01/16 13:11:56;;;;;;;12.77;6.30;;;3.40;99.90;;;;;;5049309;28;20453;-51
2022/01/16 13:14:25;;;;;;;12.93;5.97;;;3.40;99.90;;;;;;5055839;28;20468;-55
2022/01/16 13:16:54;;;;;;;14.40;7.53;;;3.40;99.90;;;;;;5056375;28;20432;-51
2022/01/16 13:19:24;;;;;;;15.30;7.83;;;3.40;99.90;;;;;;5056874;28;20433;-49
2022/01/16 13:22:02;;;;;;;17.63;8.33;;;3.40;99.90;;;;;;5057277;28;20492;-49
2022/01/16 13:24:37;;;;;;;19.07;9.77;;;3.50;99.90;;;;;;5056921;28;20435;-54
2022/01/16 13:27:07;;;;;;;22.73;9.17;;;3.50;99.90;;;;;;5057306;28;20467;-53
2022/01/16 13:29:37;;;;;;;9.47;5.77;;;3.60;99.90;;;;;;5057216;28;20520;-53
2022/01/16 13:32:06;;;;;;;12.07;7.13;;;3.60;99.90;;;;;;5057709;28;20429;-53
2022/01/16 13:34:44;;;;;;;21.37;9.20;;;3.60;99.90;;;;;;5056815;28;20439;-48
2022/01/16 13:37:17;;;;;;;12.60;7.30;;;3.60;99.90;;;;;;5057170;28;20416;-53